sensor_id;sensor_type;location;lat;lon;timestamp;temperature;humidity
28863;DHT22;15994;51.796;13.006;2023-03-23T00:01:28;11.90;99.90
28863;DHT22;15994;51.796;13.006;2023-03-23T00:03:57;11.90;99.90
28863;DHT22;15994;51.796;13.006;2023-03-23T00:06:27;11.80;99.90
28863;DHT22;15994;51.796;13.006;2023-03-23T00:09:00;11.80;99.90
28863;DHT22;15994;51.796;13.006;2023-03-23T00:11:30;11.80;99.90
28863;DHT22;15994;51.796;13.006;2023-03-23T00:13:58;11.70;99.90
28863;DHT22;15994;51.796;13.006;2023-03-23T00:16:28;11.70;99.90
28863;DHT22;15994;51.796;13.006;2023-03-23T00:18:57;11.60;99.90
28863;DHT22;15994;51.796;13.006;2023-03-23T00:21:25;11.60;99.90
28863;DHT22;15994;51.796;13.006;2023-03-23T00:24:28;11.60;99.90
28863;DHT22;15994;51.796;13.006;2023-03-23T00:26:55;11.60;99.90
28863;DHT22;15994;51.796;13.006;2023-03-23T00:29:23;11.50;99.90
28863;DHT22;15994;51.796;13.006;2023-03-23T00:31:52;11.50;99.90
28863;DHT22;15994;51.796;13.006;2023-03-23T00:34:20;11.60;99.90
28863;DHT22;15994;51.796;13.006;2023-03-23T00:36:49;11.50;99.90
28863;DHT22;15994;51.796;13.006;2023-03-23T00:39:17;11.50;99.90
28863;DHT22;15994;51.796;13.006;2023-03-23T00:41:44;11.50;99.90
28863;DHT22;15994;51.796;13.006;2023-03-23T00:44:12;11.50;99.90
28863;DHT22;15994;51.796;13.006;2023-03-23T00:46:45;11.50;99.90
28863;DHT22;15994;51.796;13.006;2023-03-23T00:49:18;11.50;99.90
28863;DHT22;15994;51.796;13.006;2023-03-23T00:51:45;11.50;99.90
28863;DHT22;15994;51.796;13.006;2023-03-23T00:54:12;11.50;99.90
28863;DHT22;15994;51.796;13.006;2023-03-23T00:56:39;11.50;99.90
28863;DHT22;15994;51.796;13.006;2023-03-23T00:59:05;11.50;99.90
28863;DHT22;15994;51.796;13.006;2023-03-23T01:01:33;11.50;99.90
28863;DHT22;15994;51.796;13.006;2023-03-23T01:04:01;11.50;99.90
28863;DHT22;15994;51.796;13.006;2023-03-23T01:06:30;11.50;99.90
28863;DHT22;15994;51.796;13.006;2023-03-23T01:08:58;11.50;99.90
28863;DHT22;15994;51.796;13.006;2023-03-23T01:11:26;11.60;99.90
28863;DHT22;15994;51.796;13.006;2023-03-23T01:13:52;11.60;99.90
28863;DHT22;15994;51.796;13.006;2023-03-23T01:16:19;11.70;99.90
28863;DHT22;15994;51.796;13.006;2023-03-23T01:18:46;11.60;99.90
28863;DHT22;15994;51.796;13.006;2023-03-23T01:21:17;11.60;99.90
28863;DHT22;15994;51.796;13.006;2023-03-23T01:23:45;11.50;99.90
28863;DHT22;15994;51.796;13.006;2023-03-23T01:26:13;11.50;99.90
28863;DHT22;15994;51.796;13.006;2023-03-23T01:28:41;11.50;99.90
28863;DHT22;15994;51.796;13.006;2023-03-23T01:31:12;11.50;99.90
28863;DHT22;15994;51.796;13.006;2023-03-23T01:33:40;11.40;99.90
28863;DHT22;15994;51.796;13.006;2023-03-23T01:36:15;11.30;99.90
28863;DHT22;15994;51.796;13.006;2023-03-23T01:38:46;11.20;99.90
28863;DHT22;15994;51.796;13.006;2023-03-23T01:41:14;11.20;99.90
28863;DHT22;15994;51.796;13.006;2023-03-23T01:46:21;11.10;99.90
28863;DHT22;15994;51.796;13.006;2023-03-23T01:48:49;11.10;99.90
28863;DHT22;15994;51.796;13.006;2023-03-23T01:51:17;11.10;99.90
28863;DHT22;15994;51.796;13.006;2023-03-23T01:53:48;11.10;99.90
28863;DHT22;15994;51.796;13.006;2023-03-23T01:56:19;11.10;99.90
28863;DHT22;15994;51.796;13.006;2023-03-23T01:58:51;11.20;99.90
28863;DHT22;15994;51.796;13.006;2023-03-23T02:01:18;11.30;99.90
28863;DHT22;15994;51.796;13.006;2023-03-23T02:03:46;11.40;99.90
28863;DHT22;15994;51.796;13.006;2023-03-23T02:06:14;11.50;99.90
28863;DHT22;15994;51.796;13.006;2023-03-23T02:08:41;11.60;99.90
28863;DHT22;15994;51.796;13.006;2023-03-23T02:11:17;11.60;99.90
28863;DHT22;15994;51.796;13.006;2023-03-23T02:13:44;11.70;99.90
28863;DHT22;15994;51.796;13.006;2023-03-23T02:18:57;11.70;99.90
28863;DHT22;15994;51.796;13.006;2023-03-23T02:21:44;11.80;99.90
28863;DHT22;15994;51.796;13.006;2023-03-23T02:24:21;11.80;99.90
28863;DHT22;15994;51.796;13.006;2023-03-23T02:27:00;11.80;99.90
28863;DHT22;15994;51.796;13.006;2023-03-23T02:29:42;11.90;99.90
28863;DHT22;15994;51.796;13.006;2023-03-23T02:35:04;11.90;99.90
28863;DHT22;15994;51.796;13.006;2023-03-23T02:38:00;12.00;99.90
28863;DHT22;15994;51.796;13.006;2023-03-23T02:40:30;12.00;99.90
28863;DHT22;15994;51.796;13.006;2023-03-23T02:42:57;12.00;99.90
28863;DHT22;15994;51.796;13.006;2023-03-23T02:45:26;12.00;99.90
28863;DHT22;15994;51.796;13.006;2023-03-23T02:47:54;12.00;99.90
28863;DHT22;15994;51.796;13.006;2023-03-23T02:50:23;12.00;99.90
28863;DHT22;15994;51.796;13.006;2023-03-23T02:52:52;12.00;99.90
28863;DHT22;15994;51.796;13.006;2023-03-23T02:55:21;12.00;99.90
28863;DHT22;15994;51.796;13.006;2023-03-23T02:57:50;12.00;99.90
28863;DHT22;15994;51.796;13.006;2023-03-23T03:00:18;12.10;99.90
28863;DHT22;15994;51.796;13.006;2023-03-23T03:02:55;12.10;99.90
28863;DHT22;15994;51.796;13.006;2023-03-23T03:08:48;12.10;99.90
28863;DHT22;15994;51.796;13.006;2023-03-23T03:11:18;12.00;99.90
28863;DHT22;15994;51.796;13.006;2023-03-23T03:14:02;11.90;99.90
28863;DHT22;15994;51.796;13.006;2023-03-23T03:16:35;11.90;99.90
28863;DHT22;15994;51.796;13.006;2023-03-23T03:19:18;11.90;99.90
28863;DHT22;15994;51.796;13.006;2023-03-23T03:21:49;11.90;99.90
28863;DHT22;15994;51.796;13.006;2023-03-23T03:24:19;11.90;99.90
28863;DHT22;15994;51.796;13.006;2023-03-23T03:26:48;11.90;99.90
28863;DHT22;15994;51.796;13.006;2023-03-23T03:29:23;11.90;99.90
28863;DHT22;15994;51.796;13.006;2023-03-23T03:31:52;12.00;99.90
28863;DHT22;15994;51.796;13.006;2023-03-23T03:34:21;12.10;99.90
28863;DHT22;15994;51.796;13.006;2023-03-23T03:36:51;12.10;99.90
28863;DHT22;15994;51.796;13.006;2023-03-23T03:39:18;12.20;99.90
28863;DHT22;15994;51.796;13.006;2023-03-23T03:41:46;12.20;99.90
28863;DHT22;15994;51.796;13.006;2023-03-23T03:44:13;12.30;99.90
28863;DHT22;15994;51.796;13.006;2023-03-23T03:46:40;12.30;99.90
28863;DHT22;15994;51.796;13.006;2023-03-23T03:49:08;12.30;99.90
28863;DHT22;15994;51.796;13.006;2023-03-23T03:51:35;12.40;99.90
28863;DHT22;15994;51.796;13.006;2023-03-23T03:54:02;12.40;99.90
28863;DHT22;15994;51.796;13.006;2023-03-23T03:56:29;12.40;99.90
28863;DHT22;15994;51.796;13.006;2023-03-23T03:58:57;12.40;99.90
28863;DHT22;15994;51.796;13.006;2023-03-23T04:01:24;12.40;99.90
28863;DHT22;15994;51.796;13.006;2023-03-23T04:03:51;12.40;99.90
28863;DHT22;15994;51.796;13.006;2023-03-23T04:06:18;12.50;99.90
28863;DHT22;15994;51.796;13.006;2023-03-23T04:08:45;12.40;99.90
28863;DHT22;15994;51.796;13.006;2023-03-23T04:11:13;12.40;99.90
28863;DHT22;15994;51.796;13.006;2023-03-23T04:13:40;12.40;99.90
28863;DHT22;15994;51.796;13.006;2023-03-23T04:16:07;12.40;99.90
28863;DHT22;15994;51.796;13.006;2023-03-23T04:18:34;12.50;99.90
28863;DHT22;15994;51.796;13.006;2023-03-23T04:21:02;12.40;99.90
28863;DHT22;15994;51.796;13.006;2023-03-23T04:23:30;12.40;99.90
28863;DHT22;15994;51.796;13.006;2023-03-23T04:25:58;12.40;99.90
28863;DHT22;15994;51.796;13.006;2023-03-23T04:28:26;12.40;99.90
28863;DHT22;15994;51.796;13.006;2023-03-23T04:30:53;12.40;99.90
28863;DHT22;15994;51.796;13.006;2023-03-23T04:33:21;12.40;99.90
28863;DHT22;15994;51.796;13.006;2023-03-23T04:35:50;12.40;99.90
28863;DHT22;15994;51.796;13.006;2023-03-23T04:38:19;12.40;99.90
28863;DHT22;15994;51.796;13.006;2023-03-23T04:40:47;12.40;99.90
28863;DHT22;15994;51.796;13.006;2023-03-23T04:43:17;12.40;99.90
28863;DHT22;15994;51.796;13.006;2023-03-23T04:45:47;12.40;99.90
28863;DHT22;15994;51.796;13.006;2023-03-23T04:48:14;12.40;99.90
28863;DHT22;15994;51.796;13.006;2023-03-23T04:50:40;12.30;99.90
28863;DHT22;15994;51.796;13.006;2023-03-23T04:53:07;12.40;99.90
28863;DHT22;15994;51.796;13.006;2023-03-23T04:55:36;12.40;99.90
28863;DHT22;15994;51.796;13.006;2023-03-23T04:58:07;12.40;99.90
28863;DHT22;15994;51.796;13.006;2023-03-23T05:00:34;12.40;99.90
28863;DHT22;15994;51.796;13.006;2023-03-23T05:03:01;12.40;99.90
28863;DHT22;15994;51.796;13.006;2023-03-23T05:05:28;12.40;99.90
28863;DHT22;15994;51.796;13.006;2023-03-23T05:07:56;12.50;99.90
28863;DHT22;15994;51.796;13.006;2023-03-23T05:10:24;12.50;99.90
28863;DHT22;15994;51.796;13.006;2023-03-23T05:12:52;12.50;99.90
28863;DHT22;15994;51.796;13.006;2023-03-23T05:15:19;12.40;99.90
28863;DHT22;15994;51.796;13.006;2023-03-23T05:17:46;12.40;99.90
28863;DHT22;15994;51.796;13.006;2023-03-23T05:20:15;12.40;99.90
28863;DHT22;15994;51.796;13.006;2023-03-23T05:22:44;12.50;99.90
28863;DHT22;15994;51.796;13.006;2023-03-23T05:25:13;12.40;99.90
28863;DHT22;15994;51.796;13.006;2023-03-23T05:27:39;12.50;99.90
28863;DHT22;15994;51.796;13.006;2023-03-23T05:30:08;12.50;99.90
28863;DHT22;15994;51.796;13.006;2023-03-23T05:32:35;12.60;99.90
28863;DHT22;15994;51.796;13.006;2023-03-23T05:35:03;12.60;99.90
28863;DHT22;15994;51.796;13.006;2023-03-23T05:37:30;12.60;99.90
28863;DHT22;15994;51.796;13.006;2023-03-23T05:39:58;12.60;99.90
28863;DHT22;15994;51.796;13.006;2023-03-23T05:42:30;12.70;99.90
28863;DHT22;15994;51.796;13.006;2023-03-23T05:44:57;12.70;99.90
28863;DHT22;15994;51.796;13.006;2023-03-23T05:47:23;12.80;99.90
28863;DHT22;15994;51.796;13.006;2023-03-23T05:49:50;12.80;99.90
28863;DHT22;15994;51.796;13.006;2023-03-23T05:52:19;12.80;99.90
28863;DHT22;15994;51.796;13.006;2023-03-23T05:54:46;12.70;99.90
28863;DHT22;15994;51.796;13.006;2023-03-23T05:57:14;12.80;99.90
28863;DHT22;15994;51.796;13.006;2023-03-23T05:59:40;12.70;99.90
28863;DHT22;15994;51.796;13.006;2023-03-23T06:02:07;12.70;99.90
28863;DHT22;15994;51.796;13.006;2023-03-23T06:04:35;12.70;99.90
28863;DHT22;15994;51.796;13.006;2023-03-23T06:07:03;12.70;99.90
28863;DHT22;15994;51.796;13.006;2023-03-23T06:09:30;12.80;99.90
28863;DHT22;15994;51.796;13.006;2023-03-23T06:11:57;12.80;99.90
28863;DHT22;15994;51.796;13.006;2023-03-23T06:14:23;12.70;99.90
28863;DHT22;15994;51.796;13.006;2023-03-23T06:16:50;12.70;99.90
28863;DHT22;15994;51.796;13.006;2023-03-23T06:19:16;12.70;99.90
28863;DHT22;15994;51.796;13.006;2023-03-23T06:21:43;12.70;99.90
28863;DHT22;15994;51.796;13.006;2023-03-23T06:24:10;12.60;99.90
28863;DHT22;15994;51.796;13.006;2023-03-23T06:26:38;12.60;99.90
28863;DHT22;15994;51.796;13.006;2023-03-23T06:29:07;12.60;99.90
28863;DHT22;15994;51.796;13.006;2023-03-23T06:31:38;12.60;99.90
28863;DHT22;15994;51.796;13.006;2023-03-23T06:34:06;12.60;99.90
28863;DHT22;15994;51.796;13.006;2023-03-23T06:36:34;12.60;99.90
28863;DHT22;15994;51.796;13.006;2023-03-23T06:39:01;12.50;99.90
28863;DHT22;15994;51.796;13.006;2023-03-23T06:41:29;12.60;99.90
28863;DHT22;15994;51.796;13.006;2023-03-23T06:43:56;12.40;99.90
28863;DHT22;15994;51.796;13.006;2023-03-23T06:46:23;12.30;99.90
28863;DHT22;15994;51.796;13.006;2023-03-23T06:48:49;12.10;99.90
28863;DHT22;15994;51.796;13.006;2023-03-23T06:51:17;12.00;99.90
28863;DHT22;15994;51.796;13.006;2023-03-23T06:53:43;11.90;99.90
28863;DHT22;15994;51.796;13.006;2023-03-23T06:56:10;11.80;99.90
28863;DHT22;15994;51.796;13.006;2023-03-23T06:58:38;11.80;99.90
28863;DHT22;15994;51.796;13.006;2023-03-23T07:01:07;11.80;99.90
28863;DHT22;15994;51.796;13.006;2023-03-23T07:03:34;11.80;99.90
28863;DHT22;15994;51.796;13.006;2023-03-23T07:06:02;11.90;99.90
28863;DHT22;15994;51.796;13.006;2023-03-23T07:08:29;11.90;99.90
28863;DHT22;15994;51.796;13.006;2023-03-23T07:10:55;11.90;99.90
28863;DHT22;15994;51.796;13.006;2023-03-23T07:13:23;11.90;99.90
28863;DHT22;15994;51.796;13.006;2023-03-23T07:15:50;11.90;99.90
28863;DHT22;15994;51.796;13.006;2023-03-23T07:18:17;12.00;99.90
28863;DHT22;15994;51.796;13.006;2023-03-23T07:20:47;12.10;99.90
28863;DHT22;15994;51.796;13.006;2023-03-23T07:23:15;12.10;99.90
28863;DHT22;15994;51.796;13.006;2023-03-23T07:25:42;12.00;99.90
28863;DHT22;15994;51.796;13.006;2023-03-23T07:28:10;12.00;99.90
28863;DHT22;15994;51.796;13.006;2023-03-23T07:30:37;12.10;99.90
28863;DHT22;15994;51.796;13.006;2023-03-23T07:33:06;12.10;99.90
28863;DHT22;15994;51.796;13.006;2023-03-23T07:35:33;12.10;99.90
28863;DHT22;15994;51.796;13.006;2023-03-23T07:38:00;12.10;99.90
28863;DHT22;15994;51.796;13.006;2023-03-23T07:40:27;12.10;99.90
28863;DHT22;15994;51.796;13.006;2023-03-23T07:42:56;12.30;99.90
28863;DHT22;15994;51.796;13.006;2023-03-23T07:45:23;12.30;99.90
28863;DHT22;15994;51.796;13.006;2023-03-23T07:47:50;12.40;99.90
28863;DHT22;15994;51.796;13.006;2023-03-23T07:50:18;12.50;99.90
28863;DHT22;15994;51.796;13.006;2023-03-23T07:52:47;12.60;99.90
28863;DHT22;15994;51.796;13.006;2023-03-23T07:55:14;12.60;99.90
28863;DHT22;15994;51.796;13.006;2023-03-23T07:57:44;12.70;99.90
28863;DHT22;15994;51.796;13.006;2023-03-23T08:00:11;12.70;99.90
28863;DHT22;15994;51.796;13.006;2023-03-23T08:02:41;12.70;99.90
28863;DHT22;15994;51.796;13.006;2023-03-23T08:05:08;12.80;99.90
28863;DHT22;15994;51.796;13.006;2023-03-23T08:07:35;12.70;99.90
28863;DHT22;15994;51.796;13.006;2023-03-23T08:10:02;12.70;99.90
28863;DHT22;15994;51.796;13.006;2023-03-23T08:12:29;12.70;99.90
28863;DHT22;15994;51.796;13.006;2023-03-23T08:14:55;12.60;99.90
28863;DHT22;15994;51.796;13.006;2023-03-23T08:17:22;12.70;99.90
28863;DHT22;15994;51.796;13.006;2023-03-23T08:19:49;12.70;99.90
28863;DHT22;15994;51.796;13.006;2023-03-23T08:22:17;12.70;99.90
28863;DHT22;15994;51.796;13.006;2023-03-23T08:24:44;12.70;99.90
28863;DHT22;15994;51.796;13.006;2023-03-23T08:27:11;12.80;99.90
28863;DHT22;15994;51.796;13.006;2023-03-23T08:29:37;12.70;99.90
28863;DHT22;15994;51.796;13.006;2023-03-23T08:32:04;12.80;99.90
28863;DHT22;15994;51.796;13.006;2023-03-23T08:34:31;12.90;99.90
28863;DHT22;15994;51.796;13.006;2023-03-23T08:36:57;12.80;99.90
28863;DHT22;15994;51.796;13.006;2023-03-23T08:39:24;12.80;99.90
28863;DHT22;15994;51.796;13.006;2023-03-23T08:41:50;12.90;99.90
28863;DHT22;15994;51.796;13.006;2023-03-23T08:44:17;12.90;99.90
28863;DHT22;15994;51.796;13.006;2023-03-23T08:46:44;13.00;99.90
28863;DHT22;15994;51.796;13.006;2023-03-23T08:49:10;13.10;99.90
28863;DHT22;15994;51.796;13.006;2023-03-23T08:51:37;13.20;99.90
28863;DHT22;15994;51.796;13.006;2023-03-23T08:54:03;13.40;99.90
28863;DHT22;15994;51.796;13.006;2023-03-23T08:56:31;13.60;99.90
28863;DHT22;15994;51.796;13.006;2023-03-23T08:58:57;13.60;99.90
28863;DHT22;15994;51.796;13.006;2023-03-23T09:01:24;13.60;99.90
28863;DHT22;15994;51.796;13.006;2023-03-23T09:03:52;13.60;99.90
28863;DHT22;15994;51.796;13.006;2023-03-23T09:06:19;13.70;99.90
28863;DHT22;15994;51.796;13.006;2023-03-23T09:08:45;13.70;99.90
28863;DHT22;15994;51.796;13.006;2023-03-23T09:11:12;13.80;99.90
28863;DHT22;15994;51.796;13.006;2023-03-23T09:13:39;13.90;99.90
28863;DHT22;15994;51.796;13.006;2023-03-23T09:16:06;14.00;99.90
28863;DHT22;15994;51.796;13.006;2023-03-23T09:18:33;14.10;99.90
28863;DHT22;15994;51.796;13.006;2023-03-23T09:21:00;14.30;99.90
28863;DHT22;15994;51.796;13.006;2023-03-23T09:23:27;14.50;99.90
28863;DHT22;15994;51.796;13.006;2023-03-23T09:25:53;14.60;99.90
28863;DHT22;15994;51.796;13.006;2023-03-23T09:28:20;14.70;99.90
28863;DHT22;15994;51.796;13.006;2023-03-23T09:30:47;14.80;99.90
28863;DHT22;15994;51.796;13.006;2023-03-23T09:33:15;14.80;99.90
28863;DHT22;15994;51.796;13.006;2023-03-23T09:35:41;14.90;99.90
28863;DHT22;15994;51.796;13.006;2023-03-23T09:38:09;14.80;99.90
28863;DHT22;15994;51.796;13.006;2023-03-23T09:48:58;14.70;99.90
28863;DHT22;15994;51.796;13.006;2023-03-23T09:51:32;14.80;99.90
28863;DHT22;15994;51.796;13.006;2023-03-23T09:54:05;14.90;99.90
28863;DHT22;15994;51.796;13.006;2023-03-23T09:56:34;15.00;99.90
28863;DHT22;15994;51.796;13.006;2023-03-23T10:01:57;15.10;99.90
28863;DHT22;15994;51.796;13.006;2023-03-23T10:07:17;15.00;99.90
28863;DHT22;15994;51.796;13.006;2023-03-23T10:09:47;15.10;99.90
28863;DHT22;15994;51.796;13.006;2023-03-23T10:12:40;15.30;99.90
28863;DHT22;15994;51.796;13.006;2023-03-23T10:15:14;15.40;99.90
28863;DHT22;15994;51.796;13.006;2023-03-23T10:17:50;15.40;99.90
28863;DHT22;15994;51.796;13.006;2023-03-23T10:20:28;15.50;99.90
28863;DHT22;15994;51.796;13.006;2023-03-23T10:25:37;15.50;99.90
28863;DHT22;15994;51.796;13.006;2023-03-23T10:28:15;15.50;99.90
28863;DHT22;15994;51.796;13.006;2023-03-23T10:30:48;15.60;99.90
28863;DHT22;15994;51.796;13.006;2023-03-23T10:33:31;15.50;99.90
28863;DHT22;15994;51.796;13.006;2023-03-23T10:36:24;15.40;99.90
28863;DHT22;15994;51.796;13.006;2023-03-23T10:38:57;15.40;99.90
28863;DHT22;15994;51.796;13.006;2023-03-23T10:41:25;15.40;99.90
28863;DHT22;15994;51.796;13.006;2023-03-23T10:43:52;15.40;99.90
28863;DHT22;15994;51.796;13.006;2023-03-23T10:48:54;15.40;99.90
28863;DHT22;15994;51.796;13.006;2023-03-23T10:51:29;15.40;99.90
28863;DHT22;15994;51.796;13.006;2023-03-23T10:53:58;15.40;99.90
28863;DHT22;15994;51.796;13.006;2023-03-23T10:56:29;15.40;99.90
28863;DHT22;15994;51.796;13.006;2023-03-23T10:59:17;15.50;99.90
28863;DHT22;15994;51.796;13.006;2023-03-23T11:01:51;15.40;99.90
28863;DHT22;15994;51.796;13.006;2023-03-23T11:04:18;15.40;99.90
28863;DHT22;15994;51.796;13.006;2023-03-23T11:06:48;15.50;99.90
28863;DHT22;15994;51.796;13.006;2023-03-23T11:09:19;15.50;99.90
28863;DHT22;15994;51.796;13.006;2023-03-23T11:11:52;15.50;99.90
28863;DHT22;15994;51.796;13.006;2023-03-23T11:14:32;15.50;99.90
28863;DHT22;15994;51.796;13.006;2023-03-23T11:17:04;15.70;99.90
28863;DHT22;15994;51.796;13.006;2023-03-23T11:19:34;15.70;99.90
28863;DHT22;15994;51.796;13.006;2023-03-23T11:24:33;15.70;99.90
28863;DHT22;15994;51.796;13.006;2023-03-23T11:27:00;15.80;99.90
28863;DHT22;15994;51.796;13.006;2023-03-23T11:29:30;15.90;99.90
28863;DHT22;15994;51.796;13.006;2023-03-23T11:34:42;16.10;99.90
28863;DHT22;15994;51.796;13.006;2023-03-23T11:37:13;16.10;99.90
28863;DHT22;15994;51.796;13.006;2023-03-23T11:43:17;16.20;99.90
28863;DHT22;15994;51.796;13.006;2023-03-23T11:45:48;16.00;99.90
28863;DHT22;15994;51.796;13.006;2023-03-23T11:51:26;15.90;99.90
28863;DHT22;15994;51.796;13.006;2023-03-23T11:54:20;16.00;99.90
28863;DHT22;15994;51.796;13.006;2023-03-23T11:56:50;15.90;99.90
28863;DHT22;15994;51.796;13.006;2023-03-23T11:59:27;15.90;99.90
28863;DHT22;15994;51.796;13.006;2023-03-23T12:05:20;15.90;99.90
28863;DHT22;15994;51.796;13.006;2023-03-23T12:13:42;16.30;99.90
28863;DHT22;15994;51.796;13.006;2023-03-23T12:34:00;16.70;99.90
28863;DHT22;15994;51.796;13.006;2023-03-23T12:36:34;16.60;99.90
28863;DHT22;15994;51.796;13.006;2023-03-23T12:44:46;16.60;99.90
28863;DHT22;15994;51.796;13.006;2023-03-23T12:50:41;16.50;99.90
28863;DHT22;15994;51.796;13.006;2023-03-23T12:53:22;16.60;99.90
28863;DHT22;15994;51.796;13.006;2023-03-23T12:56:06;16.70;99.90
28863;DHT22;15994;51.796;13.006;2023-03-23T12:58:38;16.80;99.90
28863;DHT22;15994;51.796;13.006;2023-03-23T13:01:30;16.90;99.90
28863;DHT22;15994;51.796;13.006;2023-03-23T13:04:06;16.90;99.90
28863;DHT22;15994;51.796;13.006;2023-03-23T13:06:39;16.80;99.90
28863;DHT22;15994;51.796;13.006;2023-03-23T13:11:42;16.80;99.90
28863;DHT22;15994;51.796;13.006;2023-03-23T13:20:02;16.70;99.90
28863;DHT22;15994;51.796;13.006;2023-03-23T13:22:42;16.60;99.90
28863;DHT22;15994;51.796;13.006;2023-03-23T13:25:19;16.70;99.90
28863;DHT22;15994;51.796;13.006;2023-03-23T13:27:58;16.60;99.90
28863;DHT22;15994;51.796;13.006;2023-03-23T13:30:26;16.50;99.90
28863;DHT22;15994;51.796;13.006;2023-03-23T13:33:05;16.50;99.90
28863;DHT22;15994;51.796;13.006;2023-03-23T13:35:37;16.50;99.90
28863;DHT22;15994;51.796;13.006;2023-03-23T13:38:17;16.40;99.90
28863;DHT22;15994;51.796;13.006;2023-03-23T13:40:45;16.30;99.90
28863;DHT22;15994;51.796;13.006;2023-03-23T13:43:12;16.20;99.90
28863;DHT22;15994;51.796;13.006;2023-03-23T13:45:45;16.20;99.90
28863;DHT22;15994;51.796;13.006;2023-03-23T13:53:31;16.50;99.90
28863;DHT22;15994;51.796;13.006;2023-03-23T13:56:40;16.60;99.90
28863;DHT22;15994;51.796;13.006;2023-03-23T13:59:13;16.60;99.90
28863;DHT22;15994;51.796;13.006;2023-03-23T14:01:40;16.50;99.90
28863;DHT22;15994;51.796;13.006;2023-03-23T14:04:16;16.50;99.90
28863;DHT22;15994;51.796;13.006;2023-03-23T14:06:44;16.50;99.90
28863;DHT22;15994;51.796;13.006;2023-03-23T14:09:47;16.50;99.90
28863;DHT22;15994;51.796;13.006;2023-03-23T14:12:20;16.40;99.90
28863;DHT22;15994;51.796;13.006;2023-03-23T14:14:50;16.40;99.90
28863;DHT22;15994;51.796;13.006;2023-03-23T14:17:26;16.50;99.90
28863;DHT22;15994;51.796;13.006;2023-03-23T14:19:55;16.60;99.90
28863;DHT22;15994;51.796;13.006;2023-03-23T14:22:42;16.50;99.90
28863;DHT22;15994;51.796;13.006;2023-03-23T14:25:17;16.50;99.90
28863;DHT22;15994;51.796;13.006;2023-03-23T14:27:46;16.50;99.90
28863;DHT22;15994;51.796;13.006;2023-03-23T14:30:16;16.40;99.90
28863;DHT22;15994;51.796;13.006;2023-03-23T14:32:42;16.40;99.90
28863;DHT22;15994;51.796;13.006;2023-03-23T14:35:48;16.40;99.90
28863;DHT22;15994;51.796;13.006;2023-03-23T14:38:20;16.30;99.90
28863;DHT22;15994;51.796;13.006;2023-03-23T14:40:48;16.30;99.90
28863;DHT22;15994;51.796;13.006;2023-03-23T14:43:17;16.40;99.90
28863;DHT22;15994;51.796;13.006;2023-03-23T14:45:47;16.40;99.90
28863;DHT22;15994;51.796;13.006;2023-03-23T14:48:16;16.60;99.90
28863;DHT22;15994;51.796;13.006;2023-03-23T14:50:55;16.70;99.90
28863;DHT22;15994;51.796;13.006;2023-03-23T14:53:28;16.80;99.90
28863;DHT22;15994;51.796;13.006;2023-03-23T14:55:59;16.80;99.90
28863;DHT22;15994;51.796;13.006;2023-03-23T14:58:25;16.90;99.90
28863;DHT22;15994;51.796;13.006;2023-03-23T15:00:59;16.90;99.90
28863;DHT22;15994;51.796;13.006;2023-03-23T15:03:30;16.80;99.90
28863;DHT22;15994;51.796;13.006;2023-03-23T15:06:02;16.80;99.90
28863;DHT22;15994;51.796;13.006;2023-03-23T15:08:33;16.70;99.90
28863;DHT22;15994;51.796;13.006;2023-03-23T15:13:44;16.40;99.90
28863;DHT22;15994;51.796;13.006;2023-03-23T15:16:17;16.40;99.90
28863;DHT22;15994;51.796;13.006;2023-03-23T15:18:54;16.40;99.90
28863;DHT22;15994;51.796;13.006;2023-03-23T15:21:35;16.20;99.90
28863;DHT22;15994;51.796;13.006;2023-03-23T15:24:20;16.20;99.90
28863;DHT22;15994;51.796;13.006;2023-03-23T15:26:47;16.30;99.90
28863;DHT22;15994;51.796;13.006;2023-03-23T15:29:20;16.30;99.90
28863;DHT22;15994;51.796;13.006;2023-03-23T15:31:53;16.20;99.90
28863;DHT22;15994;51.796;13.006;2023-03-23T15:34:34;16.20;99.90
28863;DHT22;15994;51.796;13.006;2023-03-23T15:37:18;16.10;99.90
28863;DHT22;15994;51.796;13.006;2023-03-23T15:39:46;16.00;99.90
28863;DHT22;15994;51.796;13.006;2023-03-23T15:47:44;16.10;99.90
28863;DHT22;15994;51.796;13.006;2023-03-23T15:50:15;16.00;99.90
28863;DHT22;15994;51.796;13.006;2023-03-23T15:52:43;16.00;99.90
28863;DHT22;15994;51.796;13.006;2023-03-23T15:55:21;16.00;99.90
28863;DHT22;15994;51.796;13.006;2023-03-23T15:57:48;16.10;99.90
28863;DHT22;15994;51.796;13.006;2023-03-23T16:00:16;16.00;99.90
28863;DHT22;15994;51.796;13.006;2023-03-23T16:02:45;16.00;99.90
28863;DHT22;15994;51.796;13.006;2023-03-23T16:05:13;15.90;99.90
28863;DHT22;15994;51.796;13.006;2023-03-23T16:07:40;15.90;99.90
28863;DHT22;15994;51.796;13.006;2023-03-23T16:10:13;15.90;99.90
28863;DHT22;15994;51.796;13.006;2023-03-23T16:12:39;15.80;99.90
28863;DHT22;15994;51.796;13.006;2023-03-23T16:15:06;15.70;99.90
28863;DHT22;15994;51.796;13.006;2023-03-23T16:17:33;15.60;99.90
28863;DHT22;15994;51.796;13.006;2023-03-23T16:20:00;15.60;99.90
28863;DHT22;15994;51.796;13.006;2023-03-23T16:22:27;15.50;99.90
28863;DHT22;15994;51.796;13.006;2023-03-23T16:24:54;15.50;99.90
28863;DHT22;15994;51.796;13.006;2023-03-23T16:27:22;15.50;99.90
28863;DHT22;15994;51.796;13.006;2023-03-23T16:29:49;15.50;99.90
28863;DHT22;15994;51.796;13.006;2023-03-23T16:32:15;15.40;99.90
28863;DHT22;15994;51.796;13.006;2023-03-23T16:34:42;15.40;99.90
28863;DHT22;15994;51.796;13.006;2023-03-23T16:37:10;15.40;99.90
28863;DHT22;15994;51.796;13.006;2023-03-23T16:39:37;15.40;99.90
28863;DHT22;15994;51.796;13.006;2023-03-23T16:42:04;15.40;99.90
28863;DHT22;15994;51.796;13.006;2023-03-23T16:44:30;15.30;99.90
28863;DHT22;15994;51.796;13.006;2023-03-23T16:46:57;15.30;99.90
28863;DHT22;15994;51.796;13.006;2023-03-23T16:49:23;15.30;99.90
28863;DHT22;15994;51.796;13.006;2023-03-23T16:51:50;15.30;99.90
28863;DHT22;15994;51.796;13.006;2023-03-23T16:54:16;15.30;99.90
28863;DHT22;15994;51.796;13.006;2023-03-23T16:56:43;15.20;99.90
28863;DHT22;15994;51.796;13.006;2023-03-23T16:59:12;15.20;99.90
28863;DHT22;15994;51.796;13.006;2023-03-23T17:01:38;15.20;99.90
28863;DHT22;15994;51.796;13.006;2023-03-23T17:04:05;15.20;99.90
28863;DHT22;15994;51.796;13.006;2023-03-23T17:06:32;15.10;99.90
28863;DHT22;15994;51.796;13.006;2023-03-23T17:08:58;15.10;99.90
28863;DHT22;15994;51.796;13.006;2023-03-23T17:11:25;15.10;99.90
28863;DHT22;15994;51.796;13.006;2023-03-23T17:13:51;15.00;99.90